Time;durP1;ratioP1;P1;durP2;ratioP2;P2;SDS_P1;SDS_P2;PMS_P1;PMS_P2;Temp;Humidity;BMP_temperature;BMP_pressure;BME280_temperature;BME280_humidity;BME280_pressure;Samples;Min_cycle;Max_cycle;Signal;HPM_P1;HPM_P2
2023/05/14 00:01:28;;;;;;;;;46.00;39.67;;;;;16.18;90.86;101193.88;4758789;29;45328;-86
2023/05/14 00:03:54;;;;;;;;;50.67;39.00;;;;;16.11;88.33;101203.69;4759932;29;45374;-86
2023/05/14 00:06:20;;;;;;;;;46.33;38.67;;;;;15.96;89.65;101198.38;4761299;29;45425;-85
2023/05/14 00:08:46;;;;;;;;;46.67;39.00;;;;;16.02;91.06;101221.59;4764316;29;46173;-85
2023/05/14 00:11:14;;;;;;;;;41.00;38.00;;;;;15.91;92.23;101173.31;4761187;29;45766;-86
2023/05/14 00:13:45;;;;;;;;;31.00;30.00;;;;;16.17;92.25;101229.63;4759805;29;45408;-85
2023/05/14 00:16:13;;;;;;;;;48.67;41.33;;;;;15.95;92.94;101191.19;4761233;29;45405;-85
2023/05/14 00:18:41;;;;;;;;;54.33;42.67;;;;;15.85;90.49;101197.47;4759997;29;47523;-85
2023/05/14 00:21:07;;;;;;;;;50.67;43.00;;;;;16.00;91.86;101232.34;4763832;29;45323;-85
2023/05/14 00:23:41;;;;;;;;;50.00;41.33;;;;;15.87;93.63;101198.34;4775703;29;45386;-85
2023/05/14 00:26:16;;;;;;;;;45.33;38.00;;;;;16.09;94.41;101237.69;4763142;29;45333;-85
2023/05/14 00:28:41;;;;;;;;;49.00;41.67;;;;;15.73;92.47;101198.34;4778307;29;47388;-85
2023/05/14 00:31:07;;;;;;;;;46.00;40.00;;;;;15.78;93.57;101226.97;4763230;29;45451;-85
2023/05/14 00:33:36;;;;;;;;;50.00;40.33;;;;;15.78;94.01;101231.44;4760866;29;45196;-85
2023/05/14 00:36:03;;;;;;;;;52.33;43.33;;;;;15.53;93.55;101185.81;4760932;29;44837;-86
2023/05/14 00:38:39;;;;;;;;;42.33;37.33;;;;;15.86;91.78;101229.66;4757114;29;46746;-86
2023/05/14 00:41:07;;;;;;;;;53.00;43.33;;;;;15.43;93.72;101186.72;4758117;29;45382;-86
2023/05/14 00:43:40;;;;;;;;;49.33;42.67;;;;;15.64;94.57;101212.63;4757188;29;45709;-86
2023/05/14 00:46:06;;;;;;;;;54.67;43.67;;;;;15.49;94.03;101186.72;4757368;29;44851;-86
2023/05/14 00:48:31;;;;;;;;;42.33;35.33;;;;;15.76;93.34;101223.38;4757683;29;47314;-86
2023/05/14 00:50:57;;;;;;;;;48.67;38.67;;;;;15.59;94.09;101196.53;4759574;29;45342;-85
2023/05/14 00:53:28;;;;;;;;;52.00;41.00;;;;;15.70;94.03;101207.25;4758250;29;45402;-86
2023/05/14 00:55:58;;;;;;;;;49.67;40.67;;;;;15.60;94.19;101218.88;4758256;29;45370;-86
2023/05/14 00:58:24;;;;;;;;;44.33;37.00;;;;;15.52;93.76;101207.25;4758455;29;47329;-85
2023/05/14 01:00:52;;;;;;;;;51.33;43.00;;;;;15.47;94.22;101199.22;4761744;29;45410;-85
2023/05/14 01:03:20;;;;;;;;;52.00;43.67;;;;;15.49;93.24;101217.97;4779506;29;45602;-85
2023/05/14 01:06:14;;;;;;;;;51.00;42.00;;;;;15.36;94.18;101168.81;4783006;29;45401;-85
2023/05/14 01:08:57;;;;;;;;;53.33;43.33;;;;;15.49;93.05;101202.78;4782488;29;45528;-85
2023/05/14 01:11:46;;;;;;;;;54.33;43.67;;;;;15.43;92.94;101209.91;4782263;29;45534;-85
2023/05/14 01:14:40;;;;;;;;;55.75;44.75;;;;;15.38;95.22;101200.06;4780955;29;45448;-85
2023/05/14 01:17:55;;;;;;;;;54.00;45.00;;;;;15.36;96.30;101201.84;4781644;29;45476;-85
2023/05/14 01:20:22;;;;;;;;;48.67;40.00;;;;;15.19;97.31;101211.66;4782526;29;48223;-85
2023/05/14 01:22:47;;;;;;;;;52.75;43.75;;;;;15.17;96.91;101210.78;4781804;29;45774;-85
2023/05/14 01:25:18;;;;;;;;;51.00;43.00;;;;;15.05;97.21;101200.91;4780604;29;45317;-86
2023/05/14 01:28:11;;;;;;;;;52.75;44.50;;;;;15.30;97.81;101215.25;4780790;29;45443;-85
2023/05/14 01:31:09;;;;;;;;;51.33;44.00;;;;;15.43;98.36;101221.56;4771472;29;47303;-85
2023/05/14 01:33:38;;;;;;;;;50.33;41.00;;;;;15.19;97.71;101176.84;4779197;29;45454;-85
2023/05/14 01:36:10;;;;;;;;;52.67;44.67;;;;;15.42;97.33;101208.13;4778678;29;45439;-85
2023/05/14 01:38:38;;;;;;;;;56.00;43.33;;;;;15.28;97.08;101197.38;4778303;29;45526;-85
2023/05/14 01:41:13;;;;;;;;;54.00;43.00;;;;;15.47;96.36;101215.31;4780157;29;45134;-86
2023/05/14 01:43:39;;;;;;;;;54.67;44.67;;;;;15.37;95.44;101209.03;4780165;29;44928;-85
2023/05/14 01:46:05;;;;;;;;;57.00;47.00;;;;;15.45;96.26;101229.56;4779869;29;45510;-85
2023/05/14 01:48:31;;;;;;;;;53.00;42.67;;;;;15.43;96.69;101209.91;4779899;29;45527;-85
2023/05/14 01:50:56;;;;;;;;;62.00;47.33;;;;;15.29;96.17;101178.63;4778621;29;46975;-85
2023/05/14 01:53:22;;;;;;;;;54.67;44.00;;;;;15.33;95.86;101172.41;4779093;29;45665;-85
2023/05/14 01:55:50;;;;;;;;;54.33;43.33;;;;;15.48;94.37;101192.06;4780567;29;45005;-86
2023/05/14 01:58:19;;;;;;;;;46.00;39.67;;;;;15.29;96.17;101157.19;4781394;29;45491;-86
2023/05/14 02:00:47;;;;;;;;;56.33;46.67;;;;;15.15;94.59;101161.66;4779463;29;47129;-86
2023/05/14 02:03:13;;;;;;;;;57.00;47.33;;;;;15.18;95.23;101183.06;4780284;29;45328;-86
2023/05/14 02:05:39;;;;;;;;;51.00;42.00;;;;;15.07;93.31;101174.09;4779859;29;45558;-86
2023/05/14 02:08:04;;;;;;;;;58.00;47.00;;;;;15.08;92.31;101202.69;4779748;29;45454;-86
2023/05/14 02:10:30;;;;;;;;;61.00;50.67;;;;;14.87;94.26;101174.97;4779849;29;47078;-85
2023/05/14 02:12:58;;;;;;;;;54.33;46.00;;;;;14.89;94.77;101172.28;4779511;29;45308;-86
2023/05/14 02:15:26;;;;;;;;;54.67;45.33;;;;;15.13;93.23;101209.84;4777372;29;45363;-85
2023/05/14 02:17:51;;;;;;;;;55.67;47.00;;;;;14.86;95.55;101161.56;4778363;29;45777;-85
2023/05/14 02:20:20;;;;;;;;;55.33;46.00;;;;;15.15;94.42;101185.75;4779312;29;45495;-86
2023/05/14 02:22:48;;;;;;;;;59.75;49.25;;;;;15.00;94.89;101154.44;4777389;29;45431;-85
2023/05/14 02:25:14;;;;;;;;;54.67;46.33;;;;;14.95;95.12;101178.56;4779485;29;45412;-85
2023/05/14 02:27:42;;;;;;;;;62.00;48.25;;;;;15.00;96.21;101162.47;4778713;29;45409;-86
2023/05/14 02:30:10;;;;;;;;;61.75;50.00;;;;;15.02;96.24;101178.56;4778729;29;47022;-84
2023/05/14 02:32:50;;;;;;;;;;;;;;;;;;;;;
2023/05/14 02:35:16;;;;;;;;;55.33;46.33;;;;;14.68;95.86;101165.94;4777916;29;68978;-85
2023/05/14 02:37:42;;;;;;;;;57.00;45.00;;;;;14.93;95.96;101204.44;4778076;29;45404;-85
2023/05/14 02:40:11;;;;;;;;;61.50;49.50;;;;;15.00;95.81;101190.16;4780121;29;48200;-85
2023/05/14 02:42:42;;;;;;;;;60.75;48.25;;;;;15.08;96.04;101203.56;4780671;29;45823;-86
2023/05/14 02:45:07;;;;;;;;;55.75;44.75;;;;;14.60;95.58;101149.88;4779014;29;45605;-85
2023/05/14 02:47:33;;;;;;;;;59.75;49.25;;;;;14.65;97.47;101151.69;4778548;29;45041;-85
2023/05/14 02:50:03;;;;;;;;;57.50;46.75;;;;;14.70;97.45;101157.94;4778874;29;46241;-85
2023/05/14 02:52:29;;;;;;;;;58.25;47.75;;;;;14.58;97.15;101140.94;4777246;29;45354;-86
2023/05/14 02:54:55;;;;;;;;;47.00;40.00;;;;;14.89;94.70;101191.94;4776577;29;45310;-86
2023/05/14 02:57:20;;;;;;;;;55.50;46.50;;;;;14.64;96.49;101160.59;4778772;29;45684;-85
2023/05/14 02:59:52;;;;;;;;;59.25;47.75;;;;;14.68;97.10;101152.56;4775902;29;47094;-86
2023/05/14 03:02:20;;;;;;;;;59.75;47.25;;;;;14.63;98.59;101145.41;4775845;29;45373;-85
2023/05/14 03:04:45;;;;;;;;;59.50;49.00;;;;;14.60;97.54;101155.22;4775055;29;45713;-85
2023/05/14 03:07:11;;;;;;;;;61.50;48.75;;;;;14.69;98.03;101166.88;4777255;29;45324;-85
2023/05/14 03:09:37;;;;;;;;;54.50;41.50;;;;;14.71;97.54;101174.00;4779658;29;45737;-86
2023/05/14 03:12:05;;;;;;;;;63.50;51.00;;;;;14.68;96.64;101151.66;4776220;29;45729;-86
2023/05/14 03:14:34;;;;;;;;;47.25;40.00;;;;;14.69;97.45;101150.81;4777439;29;45393;-86
2023/05/14 03:16:59;;;;;;;;;60.75;49.75;;;;;14.67;95.41;101155.25;4775915;29;45728;-85
2023/05/14 03:19:28;;;;;;;;;62.75;48.75;;;;;14.76;97.29;101160.63;4774811;29;46702;-86
2023/05/14 03:22:03;;;;;;;;;59.00;49.00;;;;;14.75;97.60;101190.97;4777062;29;45745;-86
2023/05/14 03:24:28;;;;;;;;;61.00;45.75;;;;;14.65;97.53;101165.94;4777273;29;45468;-86
2023/05/14 03:26:59;;;;;;;;;56.67;45.67;;;;;14.94;96.51;101189.25;4777313;29;45338;-86
2023/05/14 03:29:24;;;;;;;;;58.67;48.33;;;;;14.70;96.28;101176.66;4778095;29;48220;-86
2023/05/14 03:31:50;;;;;;;;;56.00;44.33;;;;;14.71;96.45;101183.81;4780702;29;45853;-85
2023/05/14 03:34:18;;;;;;;;;57.00;47.00;;;;;14.73;97.19;101203.47;4780305;29;45481;-86
2023/05/14 03:36:44;;;;;;;;;56.33;47.00;;;;;14.70;97.59;101207.00;4780892;29;45388;-85
2023/05/14 03:39:14;;;;;;;;;43.67;37.00;;;;;14.52;96.95;101170.31;4762747;29;47420;-85
2023/05/14 03:41:42;;;;;;;;;55.67;44.00;;;;;14.34;94.80;101167.53;4762775;29;45485;-85
2023/05/14 03:44:07;;;;;;;;;60.00;47.75;;;;;14.38;96.98;101197.00;4764261;29;45540;-85
2023/05/14 03:46:40;;;;;;;;;58.33;48.33;;;;;14.27;98.40;101165.72;4782377;29;45376;-85
2023/05/14 03:49:08;;;;;;;;;61.00;46.50;;;;;14.17;99.00;101165.66;4765295;29;47507;-85
2023/05/14 03:51:34;;;;;;;;;53.25;45.00;;;;;14.21;97.96;101194.22;4781521;29;45284;-85
2023/05/14 03:54:02;;;;;;;;;56.00;47.25;;;;;14.18;100.00;101185.31;4763099;29;45437;-85
2023/05/14 03:56:27;;;;;;;;;54.50;45.00;;;;;14.22;99.82;101189.78;4763997;29;45241;-85
2023/05/14 03:58:53;;;;;;;;;48.00;40.00;;;;;14.17;99.13;101188.84;4781548;29;45560;-85
2023/05/14 04:01:21;;;;;;;;;56.00;46.00;;;;;14.08;99.56;101160.28;4764362;29;45467;-86
2023/05/14 04:03:47;;;;;;;;;54.75;43.75;;;;;14.03;99.07;101164.69;4764708;29;45390;-87
2023/05/14 04:06:12;;;;;;;;;60.00;47.00;;;;;14.10;100.00;101173.63;4780978;29;45405;-87
2023/05/14 04:08:38;;;;;;;;;52.00;42.67;;;;;14.35;99.96;101202.34;4765027;29;47202;-86
2023/05/14 04:11:03;;;;;;;;;54.33;45.67;;;;;14.07;99.91;101153.13;4794385;29;44930;-86
2023/05/14 04:13:31;;;;;;;;;61.00;50.00;;;;;14.32;100.00;101193.38;4764857;29;45424;-86
2023/05/14 04:15:57;;;;;;;;;57.33;45.67;;;;;14.35;100.00;101209.47;4765481;29;46014;-87
2023/05/14 04:18:22;;;;;;;;;60.00;46.00;;;;;14.35;100.00;101206.78;4765111;29;46969;-87
2023/05/14 04:20:48;;;;;;;;;57.00;46.00;;;;;14.24;100.00;101192.44;4763915;29;45400;-87
2023/05/14 04:23:13;;;;;;;;;54.67;42.33;;;;;14.08;100.00;101157.59;4780474;29;45460;-86
2023/05/14 04:25:39;;;;;;;;;56.00;45.67;;;;;14.07;99.29;101169.16;4796412;29;45510;-86
2023/05/14 04:28:04;;;;;;;;;51.00;43.00;;;;;14.05;100.00;101164.69;4765452;29;48091;-86
2023/05/14 04:30:30;;;;;;;;;52.00;39.67;;;;;14.01;100.00;101169.13;4763634;29;45543;-85
2023/05/14 04:33:47;;;;;;;;;56.33;42.67;;;;;14.46;100.00;101214.88;4778206;29;45356;-87
2023/05/14 04:36:18;;;;;;;;;58.00;44.00;;;;;14.15;100.00;101171.91;4761337;29;45372;-86
2023/05/14 04:38:46;;;;;;;;;54.00;44.00;;;;;14.36;100.00;101189.84;4779395;29;47419;-86
2023/05/14 04:41:12;;;;;;;;;58.67;48.00;;;;;14.20;100.00;101179.06;4761641;29;45408;-86
2023/05/14 04:43:50;;;;;;;;;59.33;45.33;;;;;14.37;100.00;101195.22;4761858;29;45440;-87
2023/05/14 04:46:19;;;;;;;;;46.67;40.67;;;;;14.23;99.85;101177.28;4790652;29;45563;-86
2023/05/14 04:48:47;;;;;;;;;51.67;43.33;;;;;14.46;100.00;101198.81;4760045;29;47084;-86
2023/05/14 04:51:19;;;;;;;;;54.00;44.33;;;;;14.54;100.00;101208.72;4760485;29;45554;-86
2023/05/14 04:53:44;;;;;;;;;54.00;43.33;;;;;14.32;100.00;101191.63;4778134;29;45362;-87
2023/05/14 04:56:10;;;;;;;;;48.33;42.00;;;;;14.49;100.00;101210.44;4780503;29;45290;-87
2023/05/14 04:58:36;;;;;;;;;54.67;44.67;;;;;14.40;100.00;101205.94;4778874;29;45310;-87
2023/05/14 05:01:13;;;;;;;;;52.33;42.33;;;;;14.47;100.00;101209.53;4791465;29;44867;-86
2023/05/14 05:03:44;;;;;;;;;53.33;41.33;;;;;14.27;100.00;101181.78;4763016;29;45607;-86
2023/05/14 05:06:09;;;;;;;;;54.67;44.00;;;;;14.15;100.00;101177.25;4763047;29;45260;-86
2023/05/14 05:08:38;;;;;;;;;54.67;44.33;;;;;14.14;100.00;101184.38;4762731;29;46872;-86
2023/05/14 05:11:15;;;;;;;;;59.00;48.00;;;;;13.84;100.00;101154.75;4762566;29;45333;-86
2023/05/14 05:17:25;;;;;;;;;56.00;46.33;;;;;14.30;100.00;101192.47;4780653;29;45363;-86
2023/05/14 05:19:54;;;;;;;;;64.67;47.00;;;;;14.26;100.00;101201.38;4763719;29;47206;-86
2023/05/14 05:22:19;;;;;;;;;48.67;40.33;;;;;13.96;100.00;101173.56;4778895;29;45401;-86
2023/05/14 05:24:45;;;;;;;;;53.00;41.67;;;;;14.24;100.00;101208.50;4779968;29;45281;-86
2023/05/14 05:27:13;;;;;;;;;52.00;44.00;;;;;14.17;100.00;101210.25;4779345;29;45337;-86
2023/05/14 05:29:39;;;;;;;;;57.00;45.33;;;;;13.93;100.00;101170.84;4763099;29;46718;-86
2023/05/14 05:32:15;;;;;;;;;60.67;46.33;;;;;14.06;100.00;101171.81;4762983;29;45371;-86
2023/05/14 05:34:40;;;;;;;;;52.00;43.00;;;;;14.24;100.00;101208.50;4762911;29;45668;-86
2023/05/14 05:37:12;;;;;;;;;60.00;47.00;;;;;14.10;100.00;101193.28;4779584;29;45345;-86
2023/05/14 05:39:38;;;;;;;;;60.33;49.00;;;;;14.28;100.00;101207.63;4761682;29;46919;-86
2023/05/14 05:42:04;;;;;;;;;58.67;47.33;;;;;14.27;100.00;101198.72;4761690;29;45787;-86
2023/05/14 05:44:40;;;;;;;;;54.67;43.67;;;;;14.38;100.00;101218.41;4761076;29;45420;-85
2023/05/14 05:47:10;;;;;;;;;56.00;44.67;;;;;14.31;100.00;101183.59;4761370;29;45476;-86
2023/05/14 05:49:36;;;;;;;;;60.75;48.25;;;;;14.21;100.00;101193.31;4763334;29;47671;-86
2023/05/14 05:52:19;;;;;;;;;62.67;48.33;;;;;14.30;100.00;101195.16;4778481;29;45505;-86
2023/05/14 05:54:48;;;;;;;;;63.50;51.25;;;;;14.34;100.00;101205.91;4780330;29;45333;-86
2023/05/14 05:57:29;;;;;;;;;58.00;47.33;;;;;14.48;100.00;101222.06;4781414;29;45427;-86
2023/05/14 05:59:58;;;;;;;;;63.33;50.00;;;;;14.38;100.00;101196.09;4763339;29;47941;-86
2023/05/14 06:02:27;;;;;;;;;65.00;50.00;;;;;14.30;100.00;101192.47;4762517;29;45436;-86
2023/05/14 06:04:58;;;;;;;;;58.33;45.67;;;;;14.47;100.00;101204.19;4763745;29;45457;-86
2023/05/14 06:07:29;;;;;;;;;59.33;46.33;;;;;14.43;100.00;101214.88;4778822;29;45438;-86
2023/05/14 06:10:03;;;;;;;;;57.33;47.67;;;;;14.67;100.00;101235.56;4762935;29;47233;-86
2023/05/14 06:12:29;;;;;;;;;58.67;47.00;;;;;14.47;100.00;101224.72;4762673;29;45747;-86
2023/05/14 06:14:56;;;;;;;;;61.67;49.00;;;;;14.54;100.00;101242.56;4763381;29;45396;-86
2023/05/14 06:17:24;;;;;;;;;63.67;48.00;;;;;14.43;100.00;101212.19;4762203;29;45738;-86
2023/05/14 06:19:59;;;;;;;;;62.00;48.33;;;;;14.40;100.00;101222.00;4779250;29;45538;-86
2023/05/14 06:22:29;;;;;;;;;68.33;50.33;;;;;14.41;100.00;101220.22;4763789;29;45401;-86
2023/05/14 06:24:55;;;;;;;;;63.33;51.00;;;;;14.31;100.00;101221.03;4778979;29;45335;-86
2023/05/14 06:27:23;;;;;;;;;58.25;47.25;;;;;14.48;100.00;101223.81;4762972;29;45375;-85
2023/05/14 06:29:49;;;;;;;;;64.25;50.50;;;;;14.58;100.00;101257.81;4782301;29;45306;-85
2023/05/14 06:32:40;;;;;;;;;64.25;51.00;;;;;14.44;99.91;101225.59;4763167;29;45672;-86
2023/05/14 06:35:09;;;;;;;;;66.75;50.00;;;;;14.34;100.00;101239.78;4758961;29;45464;-86
2023/05/14 06:37:35;;;;;;;;;60.00;47.75;;;;;14.33;100.00;101232.66;4780126;29;44950;-85
2023/05/14 06:40:02;;;;;;;;;62.25;49.00;;;;;14.38;100.00;101234.47;4761876;29;47700;-86
2023/05/14 06:42:27;;;;;;;;;62.50;49.75;;;;;14.27;100.00;101219.22;4792566;29;45446;-86
2023/05/14 06:44:58;;;;;;;;;60.33;47.33;;;;;14.28;100.00;101229.03;4792603;29;45844;-86
2023/05/14 06:47:30;;;;;;;;;62.25;48.25;;;;;14.56;100.00;101259.56;4779968;29;45550;-87
2023/05/14 06:50:04;;;;;;;;;56.33;46.33;;;;;14.20;100.00;101219.19;4778402;29;46144;-86
2023/05/14 06:52:39;;;;;;;;;58.67;45.33;;;;;14.35;100.00;101226.41;4793561;29;45368;-86
2023/05/14 06:55:10;;;;;;;;;61.67;47.33;;;;;14.32;100.00;101220.16;4761783;29;45309;-86
2023/05/14 06:57:45;;;;;;;;;55.33;46.67;;;;;14.28;100.00;101229.03;4777953;29;45467;-86
2023/05/14 07:00:13;;;;;;;;;54.33;43.33;;;;;14.20;100.00;101221.88;4762770;29;47323;-86
2023/05/14 07:02:39;;;;;;;;;54.00;42.67;;;;;14.55;100.00;101266.69;4763009;29;45396;-86
2023/05/14 07:05:10;;;;;;;;;55.67;44.67;;;;;14.39;100.00;101230.91;4778063;29;45283;-86
2023/05/14 07:07:36;;;;;;;;;55.00;45.33;;;;;14.28;100.00;101226.34;4778531;29;45497;-86
2023/05/14 07:10:04;;;;;;;;;53.00;43.00;;;;;14.30;100.00;101257.63;4779143;29;45440;-86
2023/05/14 07:12:30;;;;;;;;;62.67;46.33;;;;;14.37;100.00;101258.53;4780096;29;45294;-86
2023/05/14 07:18:22;;;;;;;;;58.00;44.33;;;;;14.65;100.00;101269.47;4778633;29;45419;-86
2023/05/14 07:20:59;;;;;;;;;52.67;43.67;;;;;14.54;98.76;101267.59;4778544;29;45559;-86
2023/05/14 07:23:27;;;;;;;;;51.00;42.00;;;;;14.45;100.00;101274.66;4792691;29;45377;-86
2023/05/14 07:25:58;;;;;;;;;60.00;48.00;;;;;14.56;100.00;101276.56;4760836;29;45410;-86
2023/05/14 07:28:36;;;;;;;;;59.00;43.33;;;;;14.65;100.00;101281.06;4760998;29;45551;-86
2023/05/14 07:31:17;;;;;;;;;61.00;45.33;;;;;14.74;100.00;101272.19;4779057;29;45439;-86
2023/05/14 07:33:45;;;;;;;;;56.67;43.67;;;;;14.46;100.00;101238.97;4764221;29;45525;-86
2023/05/14 07:36:16;;;;;;;;;60.25;44.75;;;;;14.62;100.00;101272.09;4760953;29;45508;-86
2023/05/14 07:38:42;;;;;;;;;61.25;47.50;;;;;14.55;100.00;101269.38;4768880;29;46718;-86
2023/05/14 07:41:11;;;;;;;;;57.75;46.50;;;;;14.58;100.00;101265.84;4776427;29;48315;-86
2023/05/14 07:43:39;;;;;;;;;53.75;44.00;;;;;14.49;98.75;101247.03;4776813;29;45451;-86
2023/05/14 07:46:08;;;;;;;;;55.50;42.25;;;;;14.54;100.00;101261.31;4776786;29;45435;-87
2023/05/14 07:48:33;;;;;;;;;42.25;36.00;;;;;14.39;100.00;101227.34;4776156;29;45360;-86
2023/05/14 07:50:59;;;;;;;;;58.00;43.25;;;;;14.60;100.00;101273.00;4776556;29;45331;-87
2023/05/14 07:53:25;;;;;;;;;54.50;43.50;;;;;14.59;99.65;101265.84;4776193;29;45477;-86
2023/05/14 07:55:50;;;;;;;;;55.50;44.00;;;;;14.74;100.00;101280.22;4779125;29;45436;-86
2023/05/14 07:58:26;;;;;;;;;53.50;44.25;;;;;14.81;98.32;101268.66;4777641;29;45516;-86
2023/05/14 08:01:15;;;;;;;;;49.75;41.00;;;;;14.48;98.95;101234.50;4776432;29;46922;-86
2023/05/14 08:03:48;;;;;;;;;50.50;41.00;;;;;14.55;97.97;101231.88;4778459;29;45432;-86
2023/05/14 08:06:28;;;;;;;;;56.00;45.00;;;;;14.73;100.00;101240.94;4780388;29;45430;-86
2023/05/14 08:09:13;;;;;;;;;53.75;41.75;;;;;14.85;100.00;101267.78;4781314;29;45496;-86
2023/05/14 08:11:38;;;;;;;;;55.25;45.00;;;;;14.58;99.06;101237.31;4777434;29;46883;-86
2023/05/14 08:14:07;;;;;;;;;52.00;42.50;;;;;14.72;99.63;101233.78;4777762;29;45491;-87
2023/05/14 08:16:38;;;;;;;;;59.00;44.50;;;;;14.76;97.94;101241.84;4780319;29;45327;-86
2023/05/14 08:19:07;;;;;;;;;54.00;44.00;;;;;14.65;97.29;101248.06;4779631;29;45350;-86
2023/05/14 08:21:35;;;;;;;;;56.00;45.00;;;;;14.93;96.63;101276.75;4780376;29;45773;-86
2023/05/14 08:24:03;;;;;;;;;55.75;43.25;;;;;14.87;97.08;101279.41;4779636;29;44872;-86
2023/05/14 08:26:32;;;;;;;;;44.25;37.50;;;;;14.83;98.85;101277.59;4777987;29;45443;-86
2023/05/14 08:29:00;;;;;;;;;53.25;42.50;;;;;14.82;97.41;101238.28;4778328;29;45512;-87
2023/05/14 08:31:54;;;;;;;;;53.50;44.75;;;;;15.24;98.59;101286.69;4779759;29;48255;-86
2023/05/14 08:34:19;;;;;;;;;43.00;38.00;;;;;14.98;98.96;101247.31;4780610;29;45463;-86
2023/05/14 08:36:47;;;;;;;;;55.50;44.50;;;;;14.94;97.38;101230.31;4779823;29;45480;-86
2023/05/14 08:39:13;;;;;;;;;53.25;43.25;;;;;15.04;96.25;101241.97;4779968;29;45596;-86
2023/05/14 08:41:39;;;;;;;;;59.00;46.00;;;;;15.18;96.22;101255.41;4779094;29;45518;-86
2023/05/14 08:44:13;;;;;;;;;62.25;47.00;;;;;15.35;96.77;101282.25;4791889;29;45371;-86
2023/05/14 08:46:45;;;;;;;;;53.33;45.33;;;;;15.51;95.53;101275.16;4762669;29;45451;-86
2023/05/14 08:49:51;;;;;;;;;51.00;42.00;;;;;15.74;94.79;101289.53;4762189;29;45439;-86
2023/05/14 08:52:17;;;;;;;;;56.67;44.67;;;;;15.41;94.09;101266.19;4778036;29;45628;-86
2023/05/14 08:54:48;;;;;;;;;52.50;43.50;;;;;15.40;95.37;101262.63;4779680;29;45257;-85
2023/05/14 08:57:15;;;;;;;;;49.75;40.00;;;;;15.27;94.00;101250.09;4764263;29;45411;-87
2023/05/14 08:59:46;;;;;;;;;55.33;44.00;;;;;15.62;94.49;101289.47;4765173;29;45663;-86
2023/05/14 09:02:30;;;;;;;;;49.33;37.00;;;;;15.58;93.32;101260.88;4763037;29;47699;-86
2023/05/14 09:05:03;;;;;;;;;50.50;42.25;;;;;15.52;94.90;101256.41;4778904;29;45433;-86
2023/05/14 09:07:31;;;;;;;;;54.50;43.00;;;;;15.66;94.76;101274.31;4780005;29;45462;-86
2023/05/14 09:09:57;;;;;;;;;53.75;41.75;;;;;15.39;92.78;101243.84;4780728;29;45398;-86
2023/05/14 09:12:42;;;;;;;;;45.00;37.67;;;;;15.82;93.35;101276.16;4780026;29;46225;-86
2023/05/14 09:15:10;;;;;;;;;55.75;42.75;;;;;15.74;93.36;101273.44;4763225;29;44827;-86
2023/05/14 09:17:39;;;;;;;;;48.33;42.00;;;;;15.80;93.88;101268.09;4779975;29;45377;-86
2023/05/14 09:20:08;;;;;;;;;54.75;44.00;;;;;16.07;92.00;101277.03;4781294;29;45475;-86
2023/05/14 09:22:42;;;;;;;;;49.00;39.00;;;;;15.95;91.85;101272.56;4781391;29;45545;-86
2023/05/14 09:25:11;;;;;;;;;46.33;37.00;;;;;16.04;90.84;101281.50;4781527;29;45445;-87
2023/05/14 09:27:40;;;;;;;;;52.33;40.67;;;;;15.98;91.67;101242.19;4763108;29;45483;-86
2023/05/14 09:30:11;;;;;;;;;52.75;41.25;;;;;16.05;85.42;101241.25;4766869;29;45349;-86
2023/05/14 09:32:54;;;;;;;;;48.00;37.33;;;;;16.39;89.48;101273.44;4766781;29;48242;-86
2023/05/14 09:35:32;;;;;;;;;48.33;39.00;;;;;16.47;90.53;101268.97;4764076;29;45326;-86
2023/05/14 09:38:00;;;;;;;;;50.33;42.00;;;;;16.05;84.81;101219.81;4764425;29;45333;-86
2023/05/14 09:40:31;;;;;;;;;45.33;37.67;;;;;16.31;85.91;101259.16;4780565;29;45844;-86
2023/05/14 09:43:03;;;;;;;;;53.67;42.67;;;;;16.29;88.83;101258.25;4794260;29;47232;-86
2023/05/14 09:45:31;;;;;;;;;43.00;36.33;;;;;16.29;88.36;101264.50;4765436;29;45291;-86
2023/05/14 09:48:02;;;;;;;;;50.00;36.00;;;;;16.27;85.58;101243.94;4765744;29;45319;-86
2023/05/14 09:50:44;;;;;;;;;45.00;36.00;;;;;16.82;85.46;101272.50;4764924;29;45499;-86
2023/05/14 09:53:25;;;;;;;;;53.67;42.00;;;;;16.32;86.70;101226.94;4780342;29;46341;-87
2023/05/14 09:55:55;;;;;;;;;45.00;37.67;;;;;16.34;87.88;101237.66;4763822;29;45403;-86
2023/05/14 09:58:24;;;;;;;;;47.67;39.33;;;;;16.55;84.18;101264.47;4763100;29;45464;-86
2023/05/14 10:00:50;;;;;;;;;51.33;38.67;;;;;16.40;87.23;101260.03;4762781;29;45303;-85
2023/05/14 10:03:19;;;;;;;;;52.67;41.00;;;;;16.65;87.32;101270.72;4761158;29;47824;-86
2023/05/14 10:05:49;;;;;;;;;42.00;34.00;;;;;16.54;86.35;101232.25;4763608;29;45500;-86
2023/05/14 10:08:40;;;;;;;;;49.00;41.00;;;;;16.70;86.00;101268.00;4763647;29;45515;-87
2023/05/14 10:11:23;;;;;;;;;49.00;41.00;;;;;16.75;79.52;101271.59;4762508;29;45482;-86
2023/05/14 10:14:16;;;;;;;;;52.33;43.67;;;;;16.84;85.50;101263.50;4762652;29;47402;-86
2023/05/14 10:16:49;;;;;;;;;47.67;41.00;;;;;16.74;82.87;101237.56;4779424;29;45424;-86
2023/05/14 10:19:24;;;;;;;;;46.00;38.67;;;;;16.83;85.62;101234.88;4763298;29;45422;-86
2023/05/14 10:21:58;;;;;;;;;44.67;38.00;;;;;16.98;81.32;101237.47;4779950;29;45448;-86
2023/05/14 10:24:33;;;;;;;;;44.33;37.67;;;;;16.76;81.40;101231.31;4779854;29;46333;-86
2023/05/14 10:27:05;;;;;;;;;51.67;40.67;;;;;17.05;79.83;101257.19;4763662;29;45108;-85
2023/05/14 10:29:40;;;;;;;;;51.67;42.67;;;;;17.00;84.27;101246.44;4763296;29;45457;-85
2023/05/14 10:32:16;;;;;;;;;52.00;39.33;;;;;16.96;84.48;101233.03;4763076;29;45394;-85
2023/05/14 10:35:30;;;;;;;;;45.33;39.00;;;;;17.38;81.64;101258.78;4764321;29;47332;-85
2023/05/14 10:38:23;;;;;;;;;48.00;38.67;;;;;17.80;83.46;101254.03;4754370;29;45818;-86
2023/05/14 10:41:25;;;;;;;;;49.00;41.33;;;;;18.09;82.61;101241.28;4763209;29;45524;-86
2023/05/14 10:44:18;;;;;;;;;49.67;39.33;;;;;18.07;80.27;101243.09;4762860;29;45444;-87
2023/05/14 10:46:47;;;;;;;;;44.67;38.33;;;;;17.99;83.12;101219.81;4763018;29;46780;-86
2023/05/14 10:49:13;;;;;;;;;43.00;36.33;;;;;18.01;78.99;101206.34;4763296;29;45432;-86
2023/05/14 10:52:09;;;;;;;;;46.00;37.67;;;;;18.61;79.28;101219.22;4764323;29;45954;-86
2023/05/14 10:54:42;;;;;;;;;50.67;43.00;;;;;18.55;80.10;101204.00;4779156;29;45329;-86
2023/05/14 10:57:11;;;;;;;;;41.33;37.00;;;;;18.95;79.70;101225.13;4776247;29;47757;-86
2023/05/14 11:00:01;;;;;;;;;48.33;39.33;;;;;19.28;77.40;101212.06;4777972;29;45453;-86
2023/05/14 11:02:59;;;;;;;;;48.33;38.67;;;;;19.32;74.24;101185.97;4778613;29;45388;-86
2023/05/14 11:05:36;;;;;;;;;44.00;37.00;;;;;19.33;73.96;101203.91;4690202;30;45525;-86
2023/05/14 11:08:22;;;;;;;;;46.67;39.33;;;;;19.34;72.05;101212.00;4705280;30;46732;-86
2023/05/14 11:10:48;;;;;;;;;45.67;40.33;;;;;19.09;71.90;101192.59;4707136;30;45490;-87
2023/05/14 11:13:15;;;;;;;;;49.00;42.00;;;;;19.39;75.75;101220.91;4706940;30;45631;-86
2023/05/14 11:15:55;;;;;;;;;;;;;;;;;;;;;
2023/05/14 11:18:54;;;;;;;;;47.67;39.33;;;;;19.95;75.05;101203.84;4705057;30;73699;-85
2023/05/14 11:21:22;;;;;;;;;50.00;39.33;;;;;19.84;75.21;101195.97;4691204;30;45500;-86
2023/05/14 11:27:00;;;;;;;;;45.67;37.33;;;;;20.00;73.20;101204.69;4654756;30;45424;-86
2023/05/14 11:29:31;;;;;;;;;44.67;38.33;;;;;20.07;72.10;101189.25;4640202;30;47322;-86
2023/05/14 11:31:57;;;;;;;;;45.33;39.00;;;;;19.89;73.73;101155.38;4655455;30;44993;-86
2023/05/14 11:34:30;;;;;;;;;43.67;37.67;;;;;20.02;70.70;101148.84;4641638;30;45430;-86
2023/05/14 11:37:17;;;;;;;;;47.33;38.67;;;;;20.11;72.39;101167.56;4654078;30;45532;-86
2023/05/14 11:39:53;;;;;;;;;44.67;37.33;;;;;20.31;71.53;101158.19;4641178;30;46722;-85